Lumi/Jää/Keli Alkaa: 06-03-2021 08:00 Päättyy: 07-03-2021 00:00 Varoitus: Lumi/Jää/Keli Taso: Keltainen info button
suomi:
Liikennesää: Ajokeli muuttuu huonoksi aamusta alkaen lumi- tai räntäsateen ja sään lauhtumisen vuoksi.

svenska:
Trafikvädret: Väglaget blir dåligt från och med morgonen p.g.a. snöfall eller snöblandat regn och stigande temperatur.

english:
Traffic weather warning: Bad road conditions are expected from the morning on because of snow or sleet and rising temperature. 


Webkamera Lisätietoa Webcam


Varoitus: Lumi/Jää Lisätietoa

rain snow radar


Yksityisiä sääasemia lähellä:

Sääasema Juupajoki

Sääasema Orivesi

Sääasema Muurame

Sääasema Jyväskylä

Sääasema Vihtavuori


Löydät sääaseman tiedot myös:

Finland Weather Exchange

European Weather Network

Weather Underground

AWEKAS

Windy.com



Säätiedot lähimmiltä METAR asemilta

   
EFHA - Halli (Fin-Afb), Finland
Etäisyys asemalta: Kaakko 25 km
Päivitetty: 06.03.2021 03:50
Selkeää  
Selkeää  
   Tuuli: Eteläkaakko 3.1 m/s
Tuuli: Eteläkaakko 3.1 m/s
Lämpötila: -12°C
Tuulen hyytävyys: -18°C
Kastepiste: -13°C
Kosteus: 92%
Ilmanpaine: 1012 hPa
Näkyvyys: Enemmän kuin 10 km
Pilvitiedot: Selkeää
EFHA 060150Z AUTO 15006KT CAVOK M12/M13 Q1012
EFJY - Jyvaskyla (Mil/Civ), Finland
Etäisyys asemalta: Koillinen 75 km
Päivitetty: 06.03.2021 04:20
Selkeää  
Selkeää  
   Tuuli: Vaihtelee 0.5 m/s
Tuuli: Vaihtelee 0.5 m/s
Lämpötila: -16°C
Kastepiste: -18°C
Kosteus: 85%
Ilmanpaine: 1011 hPa
Näkyvyys: Enemmän kuin 10 km
Pilvitiedot: Selkeää
EFJY 060220Z AUTO VRB01KT CAVOK M16/M18 Q1011
EFTP - Tampere/Pirkkala, Finland
Etäisyys asemalta: Lounas 81 km
Päivitetty: 06.03.2021 04:20
Selkeää  
Selkeää  
   Tuuli: Etelälounas 3.6 m/s
Tuuli: Etelälounas 3.6 m/s
Lämpötila: -8°C
Tuulen hyytävyys: -14°C
Kastepiste: -10°C
Kosteus: 86%
Ilmanpaine: 1012 hPa
Näkyvyys: Enemmän kuin 10 km
Pilvitiedot: Selkeää
EFTP 060220Z AUTO 20007KT CAVOK M08/M10 Q1012
EFSI - Seinajoki-Ilmajoki, Finland
Etäisyys asemalta: Luode 114 km
Päivitetty: 06.03.2021 04:20
Selkeää  
Selkeää  
   Tuuli: Etelä 3.1 m/s
Tuuli: Etelä 3.1 m/s
Lämpötila: -5°C
Tuulen hyytävyys: -9°C
Kastepiste: -7°C
Kosteus: 86%
Ilmanpaine: 1008 hPa
Näkyvyys: Enemmän kuin 10 km
Pilvitiedot: Selkeää
EFSI 060220Z AUTO 17006KT 130V200 CAVOK M05/M07 Q1008
EFMI - Mikkeli, Finland
Etäisyys asemalta: Itäkaakko 147 km
Päivitetty: 06.03.2021 04:20
Selkeää  
Selkeää  
   Tuuli: Tyyntä
Tuuli: Tyyntä
Lämpötila: -17°C
Kastepiste: -19°C
Kosteus: 85%
Ilmanpaine: 1013 hPa
Näkyvyys: Enemmän kuin 10 km
Pilvitiedot: Selkeää
EFMI 060220Z AUTO 00000KT CAVOK M17/M19 Q1013
EFPO - Pori (Mil/Civ), Finland
Etäisyys asemalta: Länsilounas 154 km
Päivitetty: 06.03.2021 04:20
Selkeää  
Selkeää  
   Tuuli: Etelä 4.1 m/s
Tuuli: Etelä 4.1 m/s
Lämpötila: -4°C
Tuulen hyytävyys: -9°C
Kastepiste: -6°C
Kosteus: 86%
Ilmanpaine: 1011 hPa
Näkyvyys: Enemmän kuin 10 km
Pilvitiedot: Selkeää
EFPO 060220Z AUTO 17008KT CAVOK M04/M06 Q1011
EFUT - Utti (Fin-Afb), Finland
Etäisyys asemalta: Kaakko 180 km
Päivitetty: 06.03.2021 04:20
Selkeää  
Selkeää  
   Tuuli: Lounas 1.5 m/s
Tuuli: Lounas 1.5 m/s
Lämpötila: -13°C
Tuulen hyytävyys: -17°C
Kastepiste: -14°C
Kosteus: 92%
Ilmanpaine: 1014 hPa
Pilvisyys: Selkeää
Näkyvyys: Enemmän kuin 10 km
Pilvitiedot: Selkeää
EFUT 060220Z AUTO 22003KT 9999 NCD M13/M14 Q1014
EFVA - Vaasa, Finland
Etäisyys asemalta: Luode 180 km
Päivitetty: 06.03.2021 04:20
Selkeää  
Selkeää  
   Tuuli: Etelä 5.1 m/s
Tuuli: Etelä 5.1 m/s
Lämpötila: -4°C
Tuulen hyytävyys: -10°C
Kastepiste: -5°C
Kosteus: 93%
Ilmanpaine: 1006 hPa
Näkyvyys: Enemmän kuin 10 km
Pilvitiedot: Selkeää
EFVA 060220Z AUTO 19010KT CAVOK M04/M05 Q1006
EFHK - Helsinki/Vantaa, Finland
Etäisyys asemalta: Etelä 191 km
Päivitetty: 06.03.2021 04:20
Selkeää  
Selkeää  
   Tuuli: Lounas 2.6 m/s
Tuuli: Lounas 2.6 m/s
Lämpötila: -10°C
Tuulen hyytävyys: -15°C
Kastepiste: -11°C
Kosteus: 92%
Ilmanpaine: 1016 hPa
Näkyvyys: Enemmän kuin 10 km
Pilvitiedot: Selkeää
EFHK 060220Z 22005KT CAVOK M10/M11 Q1016 NOSIG

Alkuperäinen skripti  Saratoga-weather.org Sovitettu myös templatelle  Weerstation Leuven

Laitteet joita käytämme:

Sääasema
Davis VP2

Sääasemaohjelma
Cumulus

Sääaseman palvelin
HP ProBook 6460b

Palveluntarjoaja
Radicenter

Davis VP2

Cumulus

HP ProBook 6460b

Radicenter




Flag Counter Cumulus Top Weather Sites